Weather History for Wise, VA

Change the Weather History Date:

Tuesday, May 6, 2014

  Actual Average Record
Temperature  
Mean Temperature 72 °F -  
Max Temperature 80 °F 68 °F 82 °F (2000)
Min Temperature 64 °F 49 °F 44 °F (1998)
Cooling Degree Days 7    
Growing Degree Days 22 (Base 50)    
Moisture  
Dew Point 45 °F    
Average Humidity 39    
Maximum Humidity 56    
Minimum Humidity 26    
Precipitation  
Precipitation 0.00 in - - ()
Sea Level Pressure  
Sea Level Pressure 30.00 in    
Wind  
Wind Speed 8 mph (SW)    
Max Wind Speed 12 mph    
Max Gust Speed 20 mph    
Visibility 10 miles    
Events      
Averages and records for this station are not official NWS values.
T = Trace of Precipitation, MM = Missing Value Source: NWS Daily Summary

Daily Weather History Graph

Daily Weather History Graph

Search for Another Location

Airport:

Trip Planner

Search our weather history database for the weather conditions in past years. The results will help you decide how hot, cold, wet, or windy it might be!

Date:

Astronomy

May. 06, 2014 Rise Set
Actual Time 6:30 AM EDT 8:23 PM EDT
Civil Twilight 6:02 AM EDT 8:51 PM EDT
Nautical Twilight 5:27 AM EDT 9:26 PM EDT
Astronomical Twilight 4:51 AM EDT 10:03 PM EDT
Moon 12:43 PM EDT (5/6) 1:43 AM EDT (5/6)
Length of Visible Light 14h 49m
Length of Day
13h 53m
Waxing Crescent, 46% of the Moon is Illuminated
May 6
Waxing Crescent
May 6
First Quarter
May 14
Full
May 21
Last Quarter
May 28
New

Hourly Weather History & Observations

Time (EDT) Temp. Dew Point Humidity Pressure Visibility Wind Dir Wind Speed Gust Speed Precip Events Conditions
12:15 AM 64.4 °F 48.2 °F 56% 29.94 in 10.0 mi WSW 8.1 mph - N/A   Clear
12:35 AM 66.2 °F 48.2 °F 52% 29.94 in 10.0 mi SW 10.4 mph - N/A   Clear
1:15 AM 64.4 °F 48.2 °F 56% 29.95 in 10.0 mi SW 8.1 mph - N/A   Clear
1:35 AM 64.4 °F 46.4 °F 52% 29.95 in 10.0 mi SW 9.2 mph - N/A   Clear
1:55 AM 64.4 °F 46.4 °F 52% 29.95 in 10.0 mi SW 10.4 mph - N/A   Clear
2:15 AM 64.4 °F 46.4 °F 52% 29.95 in 10.0 mi WSW 9.2 mph - N/A   Clear
2:35 AM 64.4 °F 46.4 °F 52% 29.95 in 10.0 mi SW 9.2 mph - N/A   Clear
2:55 AM 64.4 °F 46.4 °F 52% 29.95 in 10.0 mi WSW 8.1 mph - N/A   Clear
3:15 AM 64.4 °F 46.4 °F 52% 29.95 in 10.0 mi SW 9.2 mph - N/A   Clear
3:35 AM 64.4 °F 44.6 °F 49% 29.95 in 10.0 mi SW 6.9 mph - N/A   Clear
7:55 AM 64.4 °F 41.0 °F 42% 30.02 in 10.0 mi WSW 9.2 mph - N/A   Clear
8:15 AM 66.2 °F 41.0 °F 40% 30.03 in 10.0 mi West 8.1 mph - N/A   Clear
8:35 AM 68.0 °F 41.0 °F 37% 30.03 in 10.0 mi West 10.4 mph 17.3 mph N/A   Clear
8:55 AM 69.8 °F 42.8 °F 38% 30.03 in 10.0 mi West 10.4 mph 18.4 mph N/A   Clear
9:15 AM 69.8 °F 42.8 °F 38% 30.03 in 10.0 mi West 11.5 mph 19.6 mph N/A   Clear
9:55 AM 71.6 °F 42.8 °F 35% 30.03 in 10.0 mi West 9.2 mph 18.4 mph N/A   Clear
10:15 AM 71.6 °F 44.6 °F 38% 30.03 in 10.0 mi WSW 9.2 mph - N/A   Clear
10:35 AM 71.6 °F 44.6 °F 38% 30.03 in 10.0 mi WSW 10.4 mph - N/A   Clear
10:55 AM 73.4 °F 42.8 °F 33% 30.03 in 10.0 mi West 10.4 mph 17.3 mph N/A   Clear
11:15 AM 73.4 °F 44.6 °F 36% 30.03 in 10.0 mi WSW 9.2 mph - N/A   Clear
11:35 AM 73.4 °F 42.8 °F 33% 30.03 in 10.0 mi West 8.1 mph - N/A   Clear
11:55 AM 75.2 °F 42.8 °F 31% 30.02 in 10.0 mi West 6.9 mph - N/A   Clear
12:15 PM 75.2 °F 42.8 °F 31% 30.02 in 10.0 mi SW 6.9 mph - N/A   Clear
12:35 PM 75.2 °F 44.6 °F 34% 30.01 in 10.0 mi SSW 8.1 mph - N/A   Clear
12:55 PM 77.0 °F 44.6 °F 32% 30.01 in 10.0 mi SSW 8.1 mph - N/A   Clear
1:15 PM 77.0 °F 44.6 °F 32% 30.00 in 10.0 mi SW 9.2 mph - N/A   Clear
1:35 PM 77.0 °F 44.6 °F 32% 30.00 in 10.0 mi SSW 10.4 mph - N/A   Clear
1:55 PM 78.8 °F 44.6 °F 30% 29.99 in 10.0 mi WSW 10.4 mph 16.1 mph N/A   Clear
2:15 PM 78.8 °F 42.8 °F 28% 29.99 in 10.0 mi SSE 9.2 mph - N/A   Clear
2:35 PM 78.8 °F 44.6 °F 30% 29.99 in 10.0 mi SW 9.2 mph 17.3 mph N/A   Clear
2:55 PM 78.8 °F 44.6 °F 30% 29.99 in 10.0 mi WSW 8.1 mph - N/A   Clear
3:15 PM 78.8 °F 44.6 °F 30% 29.98 in 10.0 mi SSW 8.1 mph 18.4 mph N/A   Clear
3:35 PM 80.6 °F 44.6 °F 28% 29.98 in 10.0 mi SSW 8.1 mph 16.1 mph N/A   Clear
4:15 PM 80.6 °F 42.8 °F 26% 29.97 in 10.0 mi South 4.6 mph - N/A   Clear
4:35 PM 80.6 °F 44.6 °F 28% 29.97 in 7.0 mi WSW 10.4 mph - N/A   Clear
4:55 PM 80.6 °F 42.8 °F 26% 29.98 in 10.0 mi SSW 4.6 mph - N/A   Clear
5:15 PM 80.6 °F 42.8 °F 26% 29.97 in 10.0 mi SW 9.2 mph - N/A   Clear
5:35 PM 80.6 °F 42.8 °F 26% 29.98 in 10.0 mi SSW 8.1 mph - N/A   Clear
5:55 PM 80.6 °F 42.8 °F 26% 29.98 in 10.0 mi SSW 8.1 mph - N/A   Clear
6:15 PM 78.8 °F 42.8 °F 28% 29.98 in 10.0 mi SSW 5.8 mph - N/A   Clear
6:35 PM 78.8 °F 44.6 °F 30% 29.98 in 10.0 mi SW 8.1 mph - N/A   Clear
6:55 PM 78.8 °F 44.6 °F 30% 29.98 in 10.0 mi WSW 8.1 mph - N/A   Clear
7:15 PM 77.0 °F 44.6 °F 32% 29.99 in 10.0 mi WSW 9.2 mph - N/A   Clear
7:35 PM 77.0 °F 44.6 °F 32% 29.99 in 10.0 mi WSW 6.9 mph - N/A   Clear
7:55 PM 73.4 °F 46.4 °F 38% 30.00 in 10.0 mi WSW 9.2 mph - N/A   Clear
8:15 PM 71.6 °F 46.4 °F 41% 30.01 in 10.0 mi WSW 5.8 mph - N/A   Clear
8:35 PM 69.8 °F 46.4 °F 43% 30.02 in 10.0 mi SSW 4.6 mph - N/A   Clear
8:55 PM 68.0 °F 46.4 °F 46% 30.02 in 10.0 mi SSW 4.6 mph - N/A   Clear
9:15 PM 69.8 °F 46.4 °F 43% 30.03 in 10.0 mi SSW 3.5 mph - N/A   Clear
9:35 PM 68.0 °F 46.4 °F 46% 30.03 in 10.0 mi SSW 4.6 mph - N/A   Clear
9:55 PM 68.0 °F 46.4 °F 46% 30.04 in 10.0 mi SSW 4.6 mph - N/A   Clear
10:15 PM 66.2 °F 48.2 °F 52% 30.04 in 10.0 mi SSW 5.8 mph - N/A   Clear
10:35 PM 66.2 °F 48.2 °F 52% 30.04 in 10.0 mi SSW 5.8 mph - N/A   Clear
11:15 PM 64.4 °F 48.2 °F 56% 30.05 in 10.0 mi SW 4.6 mph - N/A   Clear
11:35 PM 66.2 °F 48.2 °F 52% 30.05 in 10.0 mi SW 4.6 mph - N/A   Clear
11:55 PM 64.4 °F 48.2 °F 56% 30.05 in 10.0 mi WSW 5.8 mph - N/A   Clear